sensor_id;sensor_type;location;lat;lon;timestamp;temperature;humidity
57030;DHT22;42920;45.306;20.448;2022-12-20T00:01:18;51.40;2227.20
57030;DHT22;42920;45.306;20.448;2022-12-20T00:03:44;51.30;2227.20
57030;DHT22;42920;45.306;20.448;2022-12-20T00:06:11;51.30;2227.20
57030;DHT22;42920;45.306;20.448;2022-12-20T00:08:38;51.30;2227.20
57030;DHT22;42920;45.306;20.448;2022-12-20T00:11:05;51.40;2227.20
57030;DHT22;42920;45.306;20.448;2022-12-20T00:13:31;51.30;2227.20
57030;DHT22;42920;45.306;20.448;2022-12-20T00:16:04;51.30;2227.20
57030;DHT22;42920;45.306;20.448;2022-12-20T00:18:31;51.30;2227.20
57030;DHT22;42920;45.306;20.448;2022-12-20T00:20:57;51.30;2227.20
57030;DHT22;42920;45.306;20.448;2022-12-20T00:23:23;51.30;2227.20
57030;DHT22;42920;45.306;20.448;2022-12-20T00:25:48;51.30;2227.20
57030;DHT22;42920;45.306;20.448;2022-12-20T00:28:14;51.30;2227.20
57030;DHT22;42920;45.306;20.448;2022-12-20T00:30:39;51.30;2227.20
57030;DHT22;42920;45.306;20.448;2022-12-20T00:33:05;51.20;2227.20
57030;DHT22;42920;45.306;20.448;2022-12-20T00:35:30;51.30;2227.20
57030;DHT22;42920;45.306;20.448;2022-12-20T00:37:56;51.30;2227.20
57030;DHT22;42920;45.306;20.448;2022-12-20T00:40:22;51.30;2227.20
57030;DHT22;42920;45.306;20.448;2022-12-20T00:42:47;51.30;2227.20
57030;DHT22;42920;45.306;20.448;2022-12-20T00:45:13;51.30;2227.20
57030;DHT22;42920;45.306;20.448;2022-12-20T00:47:39;51.30;2227.20
57030;DHT22;42920;45.306;20.448;2022-12-20T00:50:04;51.30;2227.20
57030;DHT22;42920;45.306;20.448;2022-12-20T00:52:30;51.20;2227.20
57030;DHT22;42920;45.306;20.448;2022-12-20T00:54:56;51.20;2227.20
57030;DHT22;42920;45.306;20.448;2022-12-20T00:57:22;51.20;2227.20
57030;DHT22;42920;45.306;20.448;2022-12-20T00:59:47;51.20;2227.20
57030;DHT22;42920;45.306;20.448;2022-12-20T01:02:13;51.20;2227.20
57030;DHT22;42920;45.306;20.448;2022-12-20T01:04:38;51.20;2227.20
57030;DHT22;42920;45.306;20.448;2022-12-20T01:07:04;51.20;2227.20
57030;DHT22;42920;45.306;20.448;2022-12-20T01:09:30;51.20;2227.20
57030;DHT22;42920;45.306;20.448;2022-12-20T01:11:56;51.20;2227.20
57030;DHT22;42920;45.306;20.448;2022-12-20T01:14:21;51.20;2227.20
57030;DHT22;42920;45.306;20.448;2022-12-20T01:16:47;51.20;2227.20
57030;DHT22;42920;45.306;20.448;2022-12-20T01:19:14;51.20;2227.20
57030;DHT22;42920;45.306;20.448;2022-12-20T01:21:40;51.20;2227.20
57030;DHT22;42920;45.306;20.448;2022-12-20T01:24:13;51.20;2227.20
57030;DHT22;42920;45.306;20.448;2022-12-20T01:26:39;51.20;2227.20
57030;DHT22;42920;45.306;20.448;2022-12-20T01:29:04;51.20;2227.20
57030;DHT22;42920;45.306;20.448;2022-12-20T01:31:31;51.20;2227.20
57030;DHT22;42920;45.306;20.448;2022-12-20T01:33:57;26.50;2201.60
57030;DHT22;42920;45.306;20.448;2022-12-20T01:36:28;26.50;2201.60
57030;DHT22;42920;45.306;20.448;2022-12-20T01:39:02;26.50;2201.60
57030;DHT22;42920;45.306;20.448;2022-12-20T01:41:29;26.50;2201.60
57030;DHT22;42920;45.306;20.448;2022-12-20T01:44:00;26.50;2201.60
57030;DHT22;42920;45.306;20.448;2022-12-20T01:46:32;26.50;2201.60
57030;DHT22;42920;45.306;20.448;2022-12-20T01:51:28;26.50;2201.60
57030;DHT22;42920;45.306;20.448;2022-12-20T01:53:59;26.50;2201.60
57030;DHT22;42920;45.306;20.448;2022-12-20T01:56:26;26.50;2201.60
57030;DHT22;42920;45.306;20.448;2022-12-20T01:58:52;26.50;2201.60
57030;DHT22;42920;45.306;20.448;2022-12-20T02:01:21;26.50;2201.60
57030;DHT22;42920;45.306;20.448;2022-12-20T02:03:48;26.40;2201.60
57030;DHT22;42920;45.306;20.448;2022-12-20T02:06:20;26.40;2201.60
57030;DHT22;42920;45.306;20.448;2022-12-20T02:08:47;26.50;2201.60
57030;DHT22;42920;45.306;20.448;2022-12-20T02:14:41;26.40;2201.60
57030;DHT22;42920;45.306;20.448;2022-12-20T02:23:25;26.50;2201.60
57030;DHT22;42920;45.306;20.448;2022-12-20T02:31:26;26.40;2201.60
57030;DHT22;42920;45.306;20.448;2022-12-20T02:33:54;26.40;2201.60
57030;DHT22;42920;45.306;20.448;2022-12-20T02:36:22;26.40;2201.60
57030;DHT22;42920;45.306;20.448;2022-12-20T02:38:47;26.30;2201.60
57030;DHT22;42920;45.306;20.448;2022-12-20T02:41:20;26.30;2201.60
57030;DHT22;42920;45.306;20.448;2022-12-20T02:43:51;26.30;2201.60
57030;DHT22;42920;45.306;20.448;2022-12-20T02:46:37;26.30;2201.60
57030;DHT22;42920;45.306;20.448;2022-12-20T02:49:09;26.30;2201.60
57030;DHT22;42920;45.306;20.448;2022-12-20T02:51:37;26.40;2201.60
57030;DHT22;42920;45.306;20.448;2022-12-20T02:54:03;26.30;2201.60
57030;DHT22;42920;45.306;20.448;2022-12-20T02:56:34;26.20;2201.60
57030;DHT22;42920;45.306;20.448;2022-12-20T02:59:13;26.20;2201.60
57030;DHT22;42920;45.306;20.448;2022-12-20T03:01:49;26.20;2201.60
57030;DHT22;42920;45.306;20.448;2022-12-20T03:04:18;26.20;2201.60
57030;DHT22;42920;45.306;20.448;2022-12-20T03:09:24;26.20;2201.60
57030;DHT22;42920;45.306;20.448;2022-12-20T03:11:50;26.10;2201.60
57030;DHT22;42920;45.306;20.448;2022-12-20T03:14:16;26.20;2201.60
57030;DHT22;42920;45.306;20.448;2022-12-20T03:16:41;26.20;2201.60
57030;DHT22;42920;45.306;20.448;2022-12-20T03:19:07;26.20;2201.60
57030;DHT22;42920;45.306;20.448;2022-12-20T03:21:32;26.10;2201.60
57030;DHT22;42920;45.306;20.448;2022-12-20T03:23:58;26.10;2201.60
57030;DHT22;42920;45.306;20.448;2022-12-20T03:26:24;26.10;2201.60
57030;DHT22;42920;45.306;20.448;2022-12-20T03:28:49;26.10;2201.60
57030;DHT22;42920;45.306;20.448;2022-12-20T03:31:15;26.10;2201.60
57030;DHT22;42920;45.306;20.448;2022-12-20T03:33:41;26.10;2201.60
57030;DHT22;42920;45.306;20.448;2022-12-20T03:36:06;26.10;2201.60
57030;DHT22;42920;45.306;20.448;2022-12-20T03:38:32;26.10;2201.60
57030;DHT22;42920;45.306;20.448;2022-12-20T03:40:58;26.10;2201.60
57030;DHT22;42920;45.306;20.448;2022-12-20T03:43:23;26.10;2201.60
57030;DHT22;42920;45.306;20.448;2022-12-20T03:45:49;26.10;2201.60
57030;DHT22;42920;45.306;20.448;2022-12-20T03:48:15;26.00;2201.60
57030;DHT22;42920;45.306;20.448;2022-12-20T03:50:40;26.00;2201.60
57030;DHT22;42920;45.306;20.448;2022-12-20T03:53:06;26.00;2201.60
57030;DHT22;42920;45.306;20.448;2022-12-20T03:55:32;26.00;2201.60
57030;DHT22;42920;45.306;20.448;2022-12-20T03:57:58;26.00;2201.60
57030;DHT22;42920;45.306;20.448;2022-12-20T04:00:24;26.00;2201.60
57030;DHT22;42920;45.306;20.448;2022-12-20T04:02:50;26.00;2201.60
57030;DHT22;42920;45.306;20.448;2022-12-20T04:05:17;26.00;2201.60
57030;DHT22;42920;45.306;20.448;2022-12-20T04:07:42;26.00;2201.60
57030;DHT22;42920;45.306;20.448;2022-12-20T04:10:10;26.00;2201.60
57030;DHT22;42920;45.306;20.448;2022-12-20T04:12:36;26.00;2201.60
57030;DHT22;42920;45.306;20.448;2022-12-20T04:15:02;26.00;2201.60
57030;DHT22;42920;45.306;20.448;2022-12-20T04:17:27;26.00;2201.60
57030;DHT22;42920;45.306;20.448;2022-12-20T04:19:53;26.00;2201.60
57030;DHT22;42920;45.306;20.448;2022-12-20T04:22:19;26.00;2201.60
57030;DHT22;42920;45.306;20.448;2022-12-20T04:24:44;26.00;2201.60
57030;DHT22;42920;45.306;20.448;2022-12-20T04:27:10;26.00;2201.60
57030;DHT22;42920;45.306;20.448;2022-12-20T04:29:36;25.90;2201.60
57030;DHT22;42920;45.306;20.448;2022-12-20T04:32:01;25.90;2201.60
57030;DHT22;42920;45.306;20.448;2022-12-20T04:34:27;25.90;2201.60
57030;DHT22;42920;45.306;20.448;2022-12-20T04:36:52;25.90;2201.60
57030;DHT22;42920;45.306;20.448;2022-12-20T04:39:18;26.00;2201.60
57030;DHT22;42920;45.306;20.448;2022-12-20T04:41:44;25.90;2201.60
57030;DHT22;42920;45.306;20.448;2022-12-20T04:44:09;25.90;2201.60
57030;DHT22;42920;45.306;20.448;2022-12-20T04:46:35;25.90;2201.60
57030;DHT22;42920;45.306;20.448;2022-12-20T04:49:01;25.90;2201.60
57030;DHT22;42920;45.306;20.448;2022-12-20T04:51:26;25.90;2201.60
57030;DHT22;42920;45.306;20.448;2022-12-20T04:53:53;25.90;2201.60
57030;DHT22;42920;45.306;20.448;2022-12-20T04:56:23;25.80;2201.60
57030;DHT22;42920;45.306;20.448;2022-12-20T04:58:51;25.90;2201.60
57030;DHT22;42920;45.306;20.448;2022-12-20T05:01:17;25.80;2201.60
57030;DHT22;42920;45.306;20.448;2022-12-20T05:03:44;25.80;2201.60
57030;DHT22;42920;45.306;20.448;2022-12-20T05:06:10;25.90;2201.60
57030;DHT22;42920;45.306;20.448;2022-12-20T05:08:37;25.80;2201.60
57030;DHT22;42920;45.306;20.448;2022-12-20T05:11:04;25.90;2201.60
57030;DHT22;42920;45.306;20.448;2022-12-20T05:13:30;26.00;2201.60
57030;DHT22;42920;45.306;20.448;2022-12-20T05:15:56;25.90;2201.60
57030;DHT22;42920;45.306;20.448;2022-12-20T05:18:22;25.90;2201.60
57030;DHT22;42920;45.306;20.448;2022-12-20T05:20:48;25.90;2201.60
57030;DHT22;42920;45.306;20.448;2022-12-20T05:23:34;25.90;2201.60
57030;DHT22;42920;45.306;20.448;2022-12-20T05:26:18;25.80;2201.60
57030;DHT22;42920;45.306;20.448;2022-12-20T05:28:44;25.80;2201.60
57030;DHT22;42920;45.306;20.448;2022-12-20T05:31:09;25.80;2201.60
57030;DHT22;42920;45.306;20.448;2022-12-20T05:33:35;25.70;2201.60
57030;DHT22;42920;45.306;20.448;2022-12-20T05:36:01;25.70;2201.60
57030;DHT22;42920;45.306;20.448;2022-12-20T05:38:26;25.70;2201.60
57030;DHT22;42920;45.306;20.448;2022-12-20T05:40:52;25.70;2201.60
57030;DHT22;42920;45.306;20.448;2022-12-20T05:43:18;25.70;2201.60
57030;DHT22;42920;45.306;20.448;2022-12-20T05:45:50;25.70;2201.60
57030;DHT22;42920;45.306;20.448;2022-12-20T05:48:16;25.70;2201.60
57030;DHT22;42920;45.306;20.448;2022-12-20T05:50:43;25.70;2201.60
57030;DHT22;42920;45.306;20.448;2022-12-20T05:53:16;25.70;2201.60
57030;DHT22;42920;45.306;20.448;2022-12-20T05:55:47;25.70;2201.60
57030;DHT22;42920;45.306;20.448;2022-12-20T05:58:14;25.70;2201.60
57030;DHT22;42920;45.306;20.448;2022-12-20T06:00:41;25.70;2201.60
57030;DHT22;42920;45.306;20.448;2022-12-20T06:03:08;25.70;2201.60
57030;DHT22;42920;45.306;20.448;2022-12-20T06:05:35;25.70;2201.60
57030;DHT22;42920;45.306;20.448;2022-12-20T06:08:02;25.70;2201.60
57030;DHT22;42920;45.306;20.448;2022-12-20T06:10:28;25.70;2201.60
57030;DHT22;42920;45.306;20.448;2022-12-20T06:12:53;25.60;2201.60
57030;DHT22;42920;45.306;20.448;2022-12-20T06:15:19;25.60;2201.60
57030;DHT22;42920;45.306;20.448;2022-12-20T06:17:45;25.60;2201.60
57030;DHT22;42920;45.306;20.448;2022-12-20T06:20:11;25.60;2201.60
57030;DHT22;42920;45.306;20.448;2022-12-20T06:22:36;25.70;2201.60
57030;DHT22;42920;45.306;20.448;2022-12-20T06:25:03;25.60;2201.60
57030;DHT22;42920;45.306;20.448;2022-12-20T06:27:30;25.60;2201.60
57030;DHT22;42920;45.306;20.448;2022-12-20T06:29:55;25.60;2201.60
57030;DHT22;42920;45.306;20.448;2022-12-20T06:32:21;25.60;2201.60
57030;DHT22;42920;45.306;20.448;2022-12-20T06:34:47;25.60;2201.60
57030;DHT22;42920;45.306;20.448;2022-12-20T06:37:12;25.60;2201.60
57030;DHT22;42920;45.306;20.448;2022-12-20T06:39:38;25.60;2201.60
57030;DHT22;42920;45.306;20.448;2022-12-20T06:42:04;25.60;2201.60
57030;DHT22;42920;45.306;20.448;2022-12-20T06:44:30;25.60;2201.60
57030;DHT22;42920;45.306;20.448;2022-12-20T06:46:55;25.70;2201.60
57030;DHT22;42920;45.306;20.448;2022-12-20T06:49:21;25.60;2201.60
57030;DHT22;42920;45.306;20.448;2022-12-20T06:51:47;25.70;2201.60
57030;DHT22;42920;45.306;20.448;2022-12-20T06:54:12;25.70;2201.60
57030;DHT22;42920;45.306;20.448;2022-12-20T06:56:38;25.80;2201.60
57030;DHT22;42920;45.306;20.448;2022-12-20T06:59:04;25.70;2201.60
57030;DHT22;42920;45.306;20.448;2022-12-20T07:01:30;25.80;2201.60
57030;DHT22;42920;45.306;20.448;2022-12-20T07:03:56;25.80;2201.60
57030;DHT22;42920;45.306;20.448;2022-12-20T07:06:22;25.90;2201.60
57030;DHT22;42920;45.306;20.448;2022-12-20T07:08:47;25.90;2201.60
57030;DHT22;42920;45.306;20.448;2022-12-20T07:11:13;25.90;2201.60
57030;DHT22;42920;45.306;20.448;2022-12-20T07:13:39;25.90;2201.60
57030;DHT22;42920;45.306;20.448;2022-12-20T07:16:04;26.00;2201.60
57030;DHT22;42920;45.306;20.448;2022-12-20T07:18:30;26.00;2201.60
57030;DHT22;42920;45.306;20.448;2022-12-20T07:21:01;26.00;2201.60
57030;DHT22;42920;45.306;20.448;2022-12-20T07:23:27;26.20;2201.60
57030;DHT22;42920;45.306;20.448;2022-12-20T07:25:56;26.20;2201.60
57030;DHT22;42920;45.306;20.448;2022-12-20T07:28:23;26.20;2201.60
57030;DHT22;42920;45.306;20.448;2022-12-20T07:30:49;26.20;2201.60
57030;DHT22;42920;45.306;20.448;2022-12-20T07:33:16;26.20;2201.60
57030;DHT22;42920;45.306;20.448;2022-12-20T07:35:41;26.30;2201.60
57030;DHT22;42920;45.306;20.448;2022-12-20T07:38:08;26.40;2201.60
57030;DHT22;42920;45.306;20.448;2022-12-20T07:40:34;26.40;2201.60
57030;DHT22;42920;45.306;20.448;2022-12-20T07:42:59;26.40;2201.60
57030;DHT22;42920;45.306;20.448;2022-12-20T07:45:25;26.50;2201.60
57030;DHT22;42920;45.306;20.448;2022-12-20T07:47:50;26.50;2201.60
57030;DHT22;42920;45.306;20.448;2022-12-20T07:50:16;26.50;2201.60
57030;DHT22;42920;45.306;20.448;2022-12-20T07:52:43;26.30;2201.60
57030;DHT22;42920;45.306;20.448;2022-12-20T07:55:12;51.20;2227.20
57030;DHT22;42920;45.306;20.448;2022-12-20T07:57:48;26.50;2201.60
57030;DHT22;42920;45.306;20.448;2022-12-20T08:00:15;51.20;2227.20
57030;DHT22;42920;45.306;20.448;2022-12-20T08:05:31;51.20;2227.20
57030;DHT22;42920;45.306;20.448;2022-12-20T08:07:58;51.30;2227.20
57030;DHT22;42920;45.306;20.448;2022-12-20T08:10:24;51.30;2227.20
57030;DHT22;42920;45.306;20.448;2022-12-20T08:12:50;51.30;2227.20
57030;DHT22;42920;45.306;20.448;2022-12-20T08:15:17;51.40;2227.20
57030;DHT22;42920;45.306;20.448;2022-12-20T08:17:43;51.50;2227.20
57030;DHT22;42920;45.306;20.448;2022-12-20T08:20:09;51.40;2227.20
57030;DHT22;42920;45.306;20.448;2022-12-20T08:22:35;51.40;2227.20
57030;DHT22;42920;45.306;20.448;2022-12-20T08:25:01;51.40;2227.20
57030;DHT22;42920;45.306;20.448;2022-12-20T08:27:26;51.50;2227.20
57030;DHT22;42920;45.306;20.448;2022-12-20T08:29:52;51.50;2227.20
57030;DHT22;42920;45.306;20.448;2022-12-20T08:32:18;51.50;2227.20
57030;DHT22;42920;45.306;20.448;2022-12-20T08:34:43;51.70;2227.20
57030;DHT22;42920;45.306;20.448;2022-12-20T08:37:09;51.50;2227.20
57030;DHT22;42920;45.306;20.448;2022-12-20T08:39:35;51.50;2227.20
57030;DHT22;42920;45.306;20.448;2022-12-20T08:42:03;51.60;2227.20
57030;DHT22;42920;45.306;20.448;2022-12-20T08:44:30;51.70;2227.20
57030;DHT22;42920;45.306;20.448;2022-12-20T08:46:55;51.70;2227.20
57030;DHT22;42920;45.306;20.448;2022-12-20T08:49:21;51.70;2227.20
57030;DHT22;42920;45.306;20.448;2022-12-20T08:51:46;51.70;2227.20
57030;DHT22;42920;45.306;20.448;2022-12-20T08:54:12;51.80;2227.20
57030;DHT22;42920;45.306;20.448;2022-12-20T08:56:38;51.90;2227.20
57030;DHT22;42920;45.306;20.448;2022-12-20T08:59:04;51.80;2227.20
57030;DHT22;42920;45.306;20.448;2022-12-20T09:01:30;51.90;2227.20
57030;DHT22;42920;45.306;20.448;2022-12-20T09:03:58;51.90;2227.20
57030;DHT22;42920;45.306;20.448;2022-12-20T09:06:23;51.90;2227.20
57030;DHT22;42920;45.306;20.448;2022-12-20T09:08:50;51.90;2227.20
57030;DHT22;42920;45.306;20.448;2022-12-20T09:11:18;51.90;2227.20
57030;DHT22;42920;45.306;20.448;2022-12-20T09:13:46;51.90;2227.20
57030;DHT22;42920;45.306;20.448;2022-12-20T09:16:14;52.00;2227.20
57030;DHT22;42920;45.306;20.448;2022-12-20T09:18:41;52.10;2227.20
57030;DHT22;42920;45.306;20.448;2022-12-20T09:21:08;52.00;2227.20
57030;DHT22;42920;45.306;20.448;2022-12-20T09:23:35;52.10;2227.20
57030;DHT22;42920;45.306;20.448;2022-12-20T09:26:06;52.10;2227.20
57030;DHT22;42920;45.306;20.448;2022-12-20T09:28:33;76.90;2227.20
57030;DHT22;42920;45.306;20.448;2022-12-20T09:31:04;77.10;2227.20
57030;DHT22;42920;45.306;20.448;2022-12-20T09:33:31;77.10;2227.20
57030;DHT22;42920;45.306;20.448;2022-12-20T09:35:58;77.20;2227.20
57030;DHT22;42920;45.306;20.448;2022-12-20T09:38:25;77.30;2227.20
57030;DHT22;42920;45.306;20.448;2022-12-20T09:40:53;77.50;2227.20
57030;DHT22;42920;45.306;20.448;2022-12-20T09:43:20;77.50;2227.20
57030;DHT22;42920;45.306;20.448;2022-12-20T09:45:49;77.50;2227.20
57030;DHT22;42920;45.306;20.448;2022-12-20T09:48:19;77.50;2227.20
57030;DHT22;42920;45.306;20.448;2022-12-20T09:53:31;77.70;2227.20
57030;DHT22;42920;45.306;20.448;2022-12-20T09:56:15;102.40;2227.20
57030;DHT22;42920;45.306;20.448;2022-12-20T09:59:14;102.50;2227.20
57030;DHT22;42920;45.306;20.448;2022-12-20T10:01:44;102.50;2227.20
57030;DHT22;42920;45.306;20.448;2022-12-20T10:04:23;102.60;2227.20
57030;DHT22;42920;45.306;20.448;2022-12-20T10:12:32;103.00;2227.20
57030;DHT22;42920;45.306;20.448;2022-12-20T10:23:11;103.20;2227.20
57030;DHT22;42920;45.306;20.448;2022-12-20T10:25:39;103.30;2227.20
57030;DHT22;42920;45.306;20.448;2022-12-20T10:28:14;103.30;2227.20
57030;DHT22;42920;45.306;20.448;2022-12-20T10:30:41;103.30;2227.20
57030;DHT22;42920;45.306;20.448;2022-12-20T10:33:15;128.10;2252.80
57030;DHT22;42920;45.306;20.448;2022-12-20T10:35:43;103.30;2227.20
57030;DHT22;42920;45.306;20.448;2022-12-20T10:38:12;128.00;2252.80
57030;DHT22;42920;45.306;20.448;2022-12-20T10:40:39;128.00;2252.80
57030;DHT22;42920;45.306;20.448;2022-12-20T10:43:17;128.00;2252.80
57030;DHT22;42920;45.306;20.448;2022-12-20T10:45:54;128.10;2252.80
57030;DHT22;42920;45.306;20.448;2022-12-20T10:48:27;128.20;2252.80
57030;DHT22;42920;45.306;20.448;2022-12-20T10:50:58;128.40;2252.80
57030;DHT22;42920;45.306;20.448;2022-12-20T10:53:25;128.20;2252.80
57030;DHT22;42920;45.306;20.448;2022-12-20T10:55:52;128.40;2252.80
57030;DHT22;42920;45.306;20.448;2022-12-20T10:58:28;128.00;2252.80
57030;DHT22;42920;45.306;20.448;2022-12-20T11:01:04;128.30;2252.80
57030;DHT22;42920;45.306;20.448;2022-12-20T11:03:31;128.20;2252.80
57030;DHT22;42920;45.306;20.448;2022-12-20T11:05:58;128.30;2252.80
57030;DHT22;42920;45.306;20.448;2022-12-20T11:08:28;128.40;2252.80
57030;DHT22;42920;45.306;20.448;2022-12-20T11:13:41;128.30;2252.80
57030;DHT22;42920;45.306;20.448;2022-12-20T11:16:27;128.40;2252.80
57030;DHT22;42920;45.306;20.448;2022-12-20T11:19:29;128.30;2252.80
57030;DHT22;42920;45.306;20.448;2022-12-20T11:24:57;128.40;2252.80
57030;DHT22;42920;45.306;20.448;2022-12-20T11:27:37;128.40;2252.80
57030;DHT22;42920;45.306;20.448;2022-12-20T11:30:08;128.40;2252.80
57030;DHT22;42920;45.306;20.448;2022-12-20T11:40:47;128.60;2252.80
57030;DHT22;42920;45.306;20.448;2022-12-20T11:48:54;128.70;2252.80
57030;DHT22;42920;45.306;20.448;2022-12-20T11:51:23;128.70;2252.80
57030;DHT22;42920;45.306;20.448;2022-12-20T11:54:22;128.60;2252.80
57030;DHT22;42920;45.306;20.448;2022-12-20T11:56:53;128.40;2252.80
57030;DHT22;42920;45.306;20.448;2022-12-20T12:02:04;128.60;2252.80
57030;DHT22;42920;45.306;20.448;2022-12-20T12:04:58;128.60;2252.80
57030;DHT22;42920;45.306;20.448;2022-12-20T12:07:27;128.40;2252.80
57030;DHT22;42920;45.306;20.448;2022-12-20T12:12:56;128.20;2252.80
57030;DHT22;42920;45.306;20.448;2022-12-20T12:15:33;128.20;2252.80
57030;DHT22;42920;45.306;20.448;2022-12-20T12:18:19;128.20;2252.80
57030;DHT22;42920;45.306;20.448;2022-12-20T12:26:26;128.00;2252.80
57030;DHT22;42920;45.306;20.448;2022-12-20T12:29:00;103.30;2227.20
57030;DHT22;42920;45.306;20.448;2022-12-20T12:34:06;103.30;2227.20
57030;DHT22;42920;45.306;20.448;2022-12-20T12:45:02;103.30;2227.20
57030;DHT22;42920;45.306;20.448;2022-12-20T12:47:44;103.30;2227.20
57030;DHT22;42920;45.306;20.448;2022-12-20T12:52:53;103.30;2227.20
57030;DHT22;42920;45.306;20.448;2022-12-20T13:06:42;128.10;2252.80
57030;DHT22;42920;45.306;20.448;2022-12-20T13:09:21;128.00;2252.80
57030;DHT22;42920;45.306;20.448;2022-12-20T13:13:01;128.00;2252.80
57030;DHT22;42920;45.306;20.448;2022-12-20T13:20:37;128.00;2252.80
57030;DHT22;42920;45.306;20.448;2022-12-20T13:25:40;103.30;2227.20
57030;DHT22;42920;45.306;20.448;2022-12-20T13:30:43;128.10;2252.80
57030;DHT22;42920;45.306;20.448;2022-12-20T13:33:22;128.10;2252.80
57030;DHT22;42920;45.306;20.448;2022-12-20T13:35:58;128.00;2252.80
57030;DHT22;42920;45.306;20.448;2022-12-20T13:41:47;128.00;2252.80
57030;DHT22;42920;45.306;20.448;2022-12-20T13:49:22;103.10;2227.20
57030;DHT22;42920;45.306;20.448;2022-12-20T13:54:42;103.00;2227.20
57030;DHT22;42920;45.306;20.448;2022-12-20T13:57:17;103.10;2227.20
57030;DHT22;42920;45.306;20.448;2022-12-20T13:59:51;103.00;2227.20
57030;DHT22;42920;45.306;20.448;2022-12-20T14:02:26;103.00;2227.20
57030;DHT22;42920;45.306;20.448;2022-12-20T14:04:59;103.00;2227.20
57030;DHT22;42920;45.306;20.448;2022-12-20T14:07:27;102.90;2227.20
57030;DHT22;42920;45.306;20.448;2022-12-20T14:09:57;102.90;2227.20
57030;DHT22;42920;45.306;20.448;2022-12-20T14:12:23;102.90;2227.20
57030;DHT22;42920;45.306;20.448;2022-12-20T14:14:49;102.90;2227.20
57030;DHT22;42920;45.306;20.448;2022-12-20T14:17:29;102.90;2227.20
57030;DHT22;42920;45.306;20.448;2022-12-20T14:20:29;102.90;2227.20
57030;DHT22;42920;45.306;20.448;2022-12-20T14:23:08;102.80;2227.20
57030;DHT22;42920;45.306;20.448;2022-12-20T14:25:54;102.80;2227.20
57030;DHT22;42920;45.306;20.448;2022-12-20T14:31:01;102.80;2227.20
57030;DHT22;42920;45.306;20.448;2022-12-20T14:33:37;102.70;2227.20
57030;DHT22;42920;45.306;20.448;2022-12-20T14:38:33;102.70;2227.20
57030;DHT22;42920;45.306;20.448;2022-12-20T14:40:59;102.60;2227.20
57030;DHT22;42920;45.306;20.448;2022-12-20T14:43:27;102.50;2227.20
57030;DHT22;42920;45.306;20.448;2022-12-20T14:46:15;102.50;2227.20
57030;DHT22;42920;45.306;20.448;2022-12-20T14:48:42;102.50;2227.20
57030;DHT22;42920;45.306;20.448;2022-12-20T14:51:08;102.50;2227.20
57030;DHT22;42920;45.306;20.448;2022-12-20T14:53:33;102.40;2227.20
57030;DHT22;42920;45.306;20.448;2022-12-20T14:56:00;77.70;2227.20
57030;DHT22;42920;45.306;20.448;2022-12-20T14:58:26;77.70;2227.20
57030;DHT22;42920;45.306;20.448;2022-12-20T15:01:02;77.70;2227.20
57030;DHT22;42920;45.306;20.448;2022-12-20T15:03:54;77.60;2227.20
57030;DHT22;42920;45.306;20.448;2022-12-20T15:06:47;77.60;2227.20
57030;DHT22;42920;45.306;20.448;2022-12-20T15:09:14;77.60;2227.20
57030;DHT22;42920;45.306;20.448;2022-12-20T15:11:41;77.60;2227.20
57030;DHT22;42920;45.306;20.448;2022-12-20T15:14:33;77.60;2227.20
57030;DHT22;42920;45.306;20.448;2022-12-20T15:17:03;77.60;2227.20
57030;DHT22;42920;45.306;20.448;2022-12-20T15:19:28;77.60;2227.20
57030;DHT22;42920;45.306;20.448;2022-12-20T15:21:56;77.50;2227.20
57030;DHT22;42920;45.306;20.448;2022-12-20T15:24:23;77.50;2227.20
57030;DHT22;42920;45.306;20.448;2022-12-20T15:26:50;77.50;2227.20
57030;DHT22;42920;45.306;20.448;2022-12-20T15:29:20;77.40;2227.20
57030;DHT22;42920;45.306;20.448;2022-12-20T15:31:46;77.40;2227.20
57030;DHT22;42920;45.306;20.448;2022-12-20T15:34:17;77.40;2227.20
57030;DHT22;42920;45.306;20.448;2022-12-20T15:36:43;77.30;2227.20
57030;DHT22;42920;45.306;20.448;2022-12-20T15:39:09;77.30;2227.20
57030;DHT22;42920;45.306;20.448;2022-12-20T15:41:36;77.30;2227.20
57030;DHT22;42920;45.306;20.448;2022-12-20T15:44:21;77.20;2227.20
57030;DHT22;42920;45.306;20.448;2022-12-20T15:46:48;77.20;2227.20
57030;DHT22;42920;45.306;20.448;2022-12-20T15:49:16;77.20;2227.20
57030;DHT22;42920;45.306;20.448;2022-12-20T15:51:44;77.20;2227.20
57030;DHT22;42920;45.306;20.448;2022-12-20T15:54:32;77.10;2227.20
57030;DHT22;42920;45.306;20.448;2022-12-20T15:57:00;77.10;2227.20
57030;DHT22;42920;45.306;20.448;2022-12-20T15:59:29;77.00;2227.20
57030;DHT22;42920;45.306;20.448;2022-12-20T16:01:55;77.10;2227.20
57030;DHT22;42920;45.306;20.448;2022-12-20T16:04:21;77.00;2227.20
57030;DHT22;42920;45.306;20.448;2022-12-20T16:06:49;77.00;2227.20
57030;DHT22;42920;45.306;20.448;2022-12-20T16:09:18;77.10;2227.20
57030;DHT22;42920;45.306;20.448;2022-12-20T16:11:45;77.10;2227.20
57030;DHT22;42920;45.306;20.448;2022-12-20T16:14:17;77.30;2227.20
57030;DHT22;42920;45.306;20.448;2022-12-20T16:16:43;77.20;2227.20
57030;DHT22;42920;45.306;20.448;2022-12-20T16:19:10;77.10;2227.20
57030;DHT22;42920;45.306;20.448;2022-12-20T16:21:45;76.90;2227.20
57030;DHT22;42920;45.306;20.448;2022-12-20T16:24:13;77.00;2227.20
57030;DHT22;42920;45.306;20.448;2022-12-20T16:26:38;77.00;2227.20
57030;DHT22;42920;45.306;20.448;2022-12-20T16:29:04;77.00;2227.20
57030;DHT22;42920;45.306;20.448;2022-12-20T16:31:31;77.00;2227.20
57030;DHT22;42920;45.306;20.448;2022-12-20T16:33:59;76.90;2227.20
57030;DHT22;42920;45.306;20.448;2022-12-20T16:36:25;76.90;2227.20
57030;DHT22;42920;45.306;20.448;2022-12-20T16:38:52;76.90;2227.20
57030;DHT22;42920;45.306;20.448;2022-12-20T16:41:19;76.90;2227.20
57030;DHT22;42920;45.306;20.448;2022-12-20T16:43:47;76.90;2227.20
57030;DHT22;42920;45.306;20.448;2022-12-20T16:46:15;76.90;2227.20
57030;DHT22;42920;45.306;20.448;2022-12-20T16:48:42;76.80;2227.20
57030;DHT22;42920;45.306;20.448;2022-12-20T16:51:22;76.90;2227.20
57030;DHT22;42920;45.306;20.448;2022-12-20T16:53:52;76.90;2227.20
57030;DHT22;42920;45.306;20.448;2022-12-20T16:56:18;76.90;2227.20
57030;DHT22;42920;45.306;20.448;2022-12-20T16:58:43;76.90;2227.20